createdAt,value
2018-05-21T00:00:40.407Z,95356.99
2018-05-21T00:03:06.389Z,95353.83
2018-05-21T00:05:32.373Z,95358.94
2018-05-21T00:07:58.355Z,95354.80
2018-05-21T00:10:24.332Z,95354.39
2018-05-21T00:12:50.325Z,95355.78
2018-05-21T00:15:16.303Z,95356.18
2018-05-21T00:17:42.283Z,95353.59
2018-05-21T00:20:08.272Z,95358.13
2018-05-21T00:22:34.265Z,95350.45
2018-05-21T00:25:00.257Z,95353.22
2018-05-21T00:27:26.226Z,95354.59
2018-05-21T00:29:52.299Z,95352.98
2018-05-21T00:32:18.199Z,95357.52
2018-05-21T00:34:44.176Z,95357.12
2018-05-21T00:37:10.150Z,95360.85
2018-05-21T00:39:36.143Z,95357.69
2018-05-21T00:42:02.128Z,95360.85
2018-05-21T00:44:28.104Z,95355.34
2018-05-21T00:46:54.092Z,95361.83
2018-05-21T00:49:20.120Z,95364.59
2018-05-21T00:51:46.105Z,95365.59
2018-05-21T00:54:12.088Z,95367.95
2018-05-21T00:56:38.069Z,95361.45
2018-05-21T00:59:04.050Z,95362.44
2018-05-21T01:01:30.040Z,95373.08
2018-05-21T01:03:56.015Z,95361.05
2018-05-21T01:06:22.005Z,95362.03
2018-05-21T01:08:47.997Z,95363.98
2018-05-21T01:11:13.974Z,95366.58
2018-05-21T01:13:39.966Z,95362.20
2018-05-21T01:16:05.948Z,95360.81
2018-05-21T01:18:31.934Z,95363.58
2018-05-21T01:20:57.915Z,95358.05
2018-05-21T01:23:23.936Z,95363.17
2018-05-21T01:25:49.914Z,95361.02
2018-05-21T01:28:15.947Z,95360.01
2018-05-21T01:30:41.936Z,95364.75
2018-05-21T01:33:07.917Z,95360.61
2018-05-21T01:35:33.899Z,95359.23
2018-05-21T01:37:59.891Z,95360.20
2018-05-21T01:40:25.881Z,95353.30
2018-05-21T01:42:51.867Z,95345.19
2018-05-21T01:45:17.851Z,95349.33
2018-05-21T01:47:43.832Z,95346.16
2018-05-21T01:50:09.807Z,95344.98
2018-05-21T01:52:35.792Z,95350.30
2018-05-21T01:55:01.772Z,95349.93
2018-05-21T01:57:27.757Z,95345.79
2018-05-21T01:59:53.748Z,95349.93
2018-05-21T02:02:19.747Z,95346.36
2018-05-21T02:04:45.739Z,95351.31
2018-05-21T02:07:11.721Z,95347.91
2018-05-21T02:09:37.707Z,95349.70
2018-05-21T02:12:03.685Z,95355.22
2018-05-21T02:14:29.668Z,95352.45
2018-05-21T02:16:55.660Z,95350.67
2018-05-21T02:19:21.687Z,95350.09
2018-05-21T02:21:47.672Z,95353.42
2018-05-21T02:24:13.657Z,95360.33
2018-05-21T02:26:39.650Z,95356.19
2018-05-21T02:29:05.634Z,95356.19
2018-05-21T02:31:31.623Z,95364.67
2018-05-21T02:33:57.617Z,95360.94
2018-05-21T02:36:23.606Z,95362.89
2018-05-21T02:38:49.594Z,95372.35
2018-05-21T02:41:15.621Z,95357.94
2018-05-21T02:43:41.595Z,95371.17
2018-05-21T02:46:07.573Z,95372.14
2018-05-21T02:48:33.559Z,95372.95
2018-05-21T02:50:59.543Z,95366.63
2018-05-21T02:53:25.526Z,95367.59
2018-05-21T02:55:51.512Z,95365.65
2018-05-21T02:58:17.512Z,95365.65
2018-05-21T03:00:43.505Z,95370.36
2018-05-21T03:03:09.487Z,95378.23
2018-05-21T03:05:35.477Z,95379.62
2018-05-21T03:08:01.486Z,95380.83
2018-05-21T03:10:27.471Z,95376.45
2018-05-21T03:12:53.452Z,95375.27
2018-05-21T03:15:19.442Z,95374.70
2018-05-21T03:17:45.419Z,95380.22
2018-05-21T03:20:11.408Z,95375.67
2018-05-21T03:22:37.420Z,95371.53
2018-05-21T03:25:03.391Z,95374.70
2018-05-21T03:27:29.381Z,95371.53
2018-05-21T03:29:55.371Z,95370.15
2018-05-21T03:32:21.350Z,95368.36
2018-05-21T03:34:47.333Z,95369.75
2018-05-21T03:37:13.310Z,95373.89
2018-05-21T03:39:39.287Z,95375.67
2018-05-21T03:42:05.271Z,95379.41
2018-05-21T03:44:31.257Z,95385.91
2018-05-21T03:46:57.242Z,95383.14
2018-05-21T03:49:23.231Z,95380.95
2018-05-21T03:51:49.216Z,95387.69
2018-05-21T03:54:15.198Z,95378.60
2018-05-21T03:56:41.208Z,95380.95
2018-05-21T03:59:07.191Z,95382.74
2018-05-21T04:01:33.246Z,95379.17
2018-05-21T04:03:59.235Z,95381.93
2018-05-21T04:06:25.218Z,95385.30
2018-05-21T04:08:51.198Z,95381.55
2018-05-21T04:11:17.221Z,95387.45
2018-05-21T04:13:43.204Z,95385.30
2018-05-21T04:16:09.186Z,95383.51
2018-05-21T04:18:35.178Z,95390.81
2018-05-21T04:21:01.168Z,95394.55
2018-05-21T04:23:27.154Z,95398.28
2018-05-21T04:25:53.167Z,95395.53
2018-05-21T04:28:19.150Z,95402.84
2018-05-21T04:30:45.131Z,95400.64
2018-05-21T04:33:11.115Z,95401.05
2018-05-21T04:35:37.107Z,95405.59
2018-05-21T04:38:03.082Z,95399.30
2018-05-21T04:40:29.066Z,95406.20
2018-05-21T04:42:55.080Z,95398.33
2018-05-21T04:45:21.061Z,95404.25
2018-05-21T04:47:47.080Z,95397.35
2018-05-21T04:50:13.023Z,95400.97
2018-05-21T04:52:39.032Z,95401.38
2018-05-21T04:55:05.023Z,95404.37
2018-05-21T04:57:31.001Z,95410.11
2018-05-21T04:59:56.983Z,95408.92
2018-05-21T05:02:23.021Z,95410.30
2018-05-21T05:04:49.031Z,95406.33
2018-05-21T05:07:15.018Z,95408.88
2018-05-21T05:09:41.023Z,95414.41
2018-05-21T05:12:07.024Z,95410.43
2018-05-21T05:14:33.012Z,95412.09
2018-05-21T05:16:58.999Z,95406.94
2018-05-21T05:19:24.990Z,95402.27
2018-05-21T05:21:50.990Z,95404.91
2018-05-21T05:24:16.982Z,95405.52
2018-05-21T05:26:43.037Z,95403.73
2018-05-21T05:29:08.944Z,95402.76
2018-05-21T05:31:34.926Z,95403.52
2018-05-21T05:34:00.953Z,95400.77
2018-05-21T05:36:26.953Z,95400.77
2018-05-21T05:38:52.946Z,95399.78
2018-05-21T05:41:18.995Z,95399.95
2018-05-21T05:43:44.993Z,95399.78
2018-05-21T05:46:10.981Z,95404.50
2018-05-21T05:48:37.016Z,95414.57
2018-05-21T05:51:02.993Z,95417.09
2018-05-21T05:53:28.984Z,95413.95
2018-05-21T05:55:54.966Z,95414.13
2018-05-21T05:58:20.972Z,95417.09
2018-05-21T06:00:46.965Z,95411.57
2018-05-21T06:03:12.965Z,95416.72
2018-05-21T06:05:39.027Z,95413.15
2018-05-21T06:08:05.024Z,95413.36
2018-05-21T06:10:31.006Z,95410.80
2018-05-21T06:12:57.017Z,95405.27
2018-05-21T06:15:23.017Z,95409.01
2018-05-21T06:17:48.998Z,95408.03
2018-05-21T06:20:14.998Z,95400.52
2018-05-21T06:22:41.014Z,95401.53
2018-05-21T06:25:06.998Z,95408.44
2018-05-21T06:27:32.984Z,95402.72
2018-05-21T06:29:58.978Z,95401.34
2018-05-21T06:32:24.965Z,95398.58
2018-05-21T06:34:50.947Z,95395.64
2018-05-21T06:37:16.943Z,95396.63
2018-05-21T06:39:42.940Z,95396.98
2018-05-21T06:42:08.934Z,95401.34
2018-05-21T06:44:34.921Z,95395.24
2018-05-21T06:47:00.944Z,95398.61
2018-05-21T06:49:26.926Z,95400.81
2018-05-21T06:51:52.930Z,95397.52
2018-05-21T06:54:18.935Z,95400.65
2018-05-21T06:56:44.929Z,95403.69
2018-05-21T06:59:10.922Z,95403.12
2018-05-21T07:01:36.902Z,95397.39
2018-05-21T07:04:02.891Z,95401.00
2018-05-21T07:06:28.912Z,95399.26
2018-05-21T07:08:54.895Z,95395.93
2018-05-21T07:11:20.872Z,95399.09
2018-05-21T07:13:46.856Z,95396.33
2018-05-21T07:16:12.840Z,95399.70
2018-05-21T07:18:38.821Z,95399.70
2018-05-21T07:21:04.840Z,95403.89
2018-05-21T07:23:30.827Z,95412.17
2018-05-21T07:25:56.835Z,95409.01
2018-05-21T07:28:22.838Z,95413.55
2018-05-21T07:30:48.852Z,95407.66
2018-05-21T07:33:14.801Z,95413.19
2018-05-21T07:35:40.785Z,95413.80
2018-05-21T07:38:06.772Z,95413.42
2018-05-21T07:40:32.756Z,95412.25
2018-05-21T07:42:58.738Z,95402.95
2018-05-21T07:45:24.729Z,95402.38
2018-05-21T07:47:50.706Z,95407.91
2018-05-21T07:50:16.683Z,95413.06
2018-05-21T07:52:42.672Z,95409.49
2018-05-21T07:55:08.649Z,95410.47
2018-05-21T07:57:34.630Z,95410.88
2018-05-21T08:00:00.616Z,95410.30
2018-05-21T08:02:26.602Z,95397.06
2018-05-21T08:04:52.588Z,95401.61
2018-05-21T08:07:18.640Z,95404.53
2018-05-21T08:09:44.631Z,95400.80
2018-05-21T08:12:10.620Z,95412.83
2018-05-21T08:14:36.614Z,95410.88
2018-05-21T08:17:02.588Z,95414.20
2018-05-21T08:19:28.582Z,95414.20
2018-05-21T08:21:54.560Z,95414.97
2018-05-21T08:24:20.545Z,95426.43
2018-05-21T08:26:46.529Z,95422.33
2018-05-21T08:29:12.511Z,95422.89
2018-05-21T08:31:38.489Z,95427.04
2018-05-21T08:34:04.480Z,95426.63
2018-05-21T08:36:30.459Z,95427.61
2018-05-21T08:38:56.447Z,95421.31
2018-05-21T08:41:22.475Z,95420.91
2018-05-21T08:43:48.629Z,95429.96
2018-05-21T08:46:14.621Z,95431.34
2018-05-21T08:48:40.618Z,95434.27
2018-05-21T08:51:06.700Z,95438.81
2018-05-21T08:53:32.714Z,95434.06
2018-05-21T08:55:58.698Z,95430.29
2018-05-21T08:58:24.707Z,95433.02
2018-05-21T09:00:50.711Z,95430.86
2018-05-21T09:03:16.706Z,95430.29
2018-05-21T09:05:42.684Z,95425.38
2018-05-21T09:08:08.685Z,95433.05
2018-05-21T09:10:34.670Z,95426.88
2018-05-21T09:13:00.804Z,95430.81
2018-05-21T09:15:26.676Z,95430.94
2018-05-21T09:17:52.677Z,95429.97
2018-05-21T09:20:18.659Z,95427.20
2018-05-21T09:22:44.740Z,95423.27
2018-05-21T09:25:10.630Z,95420.70
2018-05-21T09:27:36.613Z,95414.94
2018-05-21T09:30:02.616Z,95411.56
2018-05-21T09:32:28.642Z,95417.05
2018-05-21T09:34:54.867Z,95415.06
2018-05-21T09:37:20.858Z,95413.67
2018-05-21T09:39:46.861Z,95414.69
2018-05-21T09:42:12.848Z,95409.74
2018-05-21T09:44:38.825Z,95412.09
2018-05-21T09:47:04.810Z,95414.45
2018-05-21T09:49:30.790Z,95412.87
2018-05-21T09:51:56.781Z,95417.22
2018-05-21T09:54:22.768Z,95426.67
2018-05-21T09:56:48.885Z,95425.09
2018-05-21T09:59:14.879Z,95424.03
2018-05-21T10:01:41.044Z,95422.28
2018-05-21T10:04:07.043Z,95419.69
2018-05-21T10:06:33.021Z,95420.66
2018-05-21T10:08:59.026Z,95416.12
2018-05-21T10:11:25.333Z,95421.84
2018-05-21T10:13:51.328Z,95420.05
2018-05-21T10:16:17.318Z,95418.44
2018-05-21T10:18:43.314Z,95417.66
2018-05-21T10:21:09.305Z,95415.67
2018-05-21T10:23:35.288Z,95406.41
2018-05-21T10:26:01.350Z,95407.80
2018-05-21T10:28:27.255Z,95410.80
2018-05-21T10:30:53.253Z,95416.92
2018-05-21T10:33:19.230Z,95416.16
2018-05-21T10:35:45.209Z,95419.94
2018-05-21T10:38:11.200Z,95416.80
2018-05-21T10:40:37.200Z,95420.75
2018-05-21T10:43:03.194Z,95414.08
2018-05-21T10:45:29.214Z,95410.72
2018-05-21T10:47:55.193Z,95413.72
2018-05-21T10:50:21.225Z,95412.74
2018-05-21T10:52:47.210Z,95414.16
2018-05-21T10:55:13.249Z,95407.26
2018-05-21T10:57:39.307Z,95410.02
2018-05-21T11:00:05.285Z,95405.23
2018-05-21T11:02:31.285Z,95406.00
2018-05-21T11:04:57.320Z,95394.75
2018-05-21T11:07:23.303Z,95394.16
2018-05-21T11:09:49.304Z,95395.73
2018-05-21T11:12:15.356Z,95388.18
2018-05-21T11:14:41.303Z,95389.77
2018-05-21T11:17:07.301Z,95389.19
2018-05-21T11:19:33.285Z,95382.90
2018-05-21T11:21:59.276Z,95385.45
2018-05-21T11:24:25.302Z,95381.55
2018-05-21T11:26:51.251Z,95382.17
2018-05-21T11:29:17.230Z,95380.22
2018-05-21T11:31:43.255Z,95381.77
2018-05-21T11:34:09.236Z,95388.30
2018-05-21T11:36:35.218Z,95384.40
2018-05-21T11:39:01.238Z,95382.44
2018-05-21T11:41:27.218Z,95380.25
2018-05-21T11:43:53.199Z,95386.59
2018-05-21T11:46:19.275Z,95383.42
2018-05-21T11:48:45.184Z,95384.40
2018-05-21T11:51:11.163Z,95373.31
2018-05-21T11:53:37.159Z,95377.25
2018-05-21T11:56:03.147Z,95378.59
2018-05-21T11:58:29.152Z,95372.73
2018-05-21T12:00:55.189Z,95376.23
2018-05-21T12:03:21.167Z,95371.32
2018-05-21T12:05:47.150Z,95382.94
2018-05-21T12:08:13.147Z,95375.42
2018-05-21T12:10:39.135Z,95371.66
2018-05-21T12:13:05.116Z,95368.89
2018-05-21T12:15:31.142Z,95369.49
2018-05-21T12:17:57.123Z,95364.14
2018-05-21T12:20:23.107Z,95360.20
2018-05-21T12:22:49.089Z,95365.31
2018-05-21T12:25:15.080Z,95366.45
2018-05-21T12:27:41.060Z,95370.20
2018-05-21T12:30:07.098Z,95366.86
2018-05-21T12:32:33.077Z,95364.30
2018-05-21T12:34:59.056Z,95362.68
2018-05-21T12:37:25.037Z,95365.03
2018-05-21T12:39:51.027Z,95369.38
2018-05-21T12:42:17.032Z,95352.17
2018-05-21T12:44:43.021Z,95353.17
2018-05-21T12:47:09.004Z,95349.81
2018-05-21T12:49:34.996Z,95342.50
2018-05-21T12:52:01.027Z,95335.23
2018-05-21T12:54:27.023Z,95331.66
2018-05-21T12:56:53.018Z,95330.68
2018-05-21T12:59:19.011Z,95324.96
2018-05-21T13:01:44.987Z,95327.72
2018-05-21T13:04:10.979Z,95319.44
2018-05-21T13:06:36.975Z,95314.52
2018-05-21T13:09:02.993Z,95308.39
2018-05-21T13:11:28.976Z,95305.64
2018-05-21T13:13:55.000Z,95300.31
2018-05-21T13:16:20.977Z,95308.59
2018-05-21T13:18:46.973Z,95307.99
2018-05-21T13:21:12.963Z,95307.63
2018-05-21T13:23:38.976Z,95303.24
2018-05-21T13:26:04.952Z,95302.27
2018-05-21T13:28:30.940Z,95299.50
2018-05-21T13:30:56.951Z,95295.20
2018-05-21T13:33:22.930Z,95290.05
2018-05-21T13:35:48.912Z,95289.07
2018-05-21T13:38:14.896Z,95278.80
2018-05-21T13:40:40.878Z,95286.10
2018-05-21T13:43:06.931Z,95283.55
2018-05-21T13:45:32.950Z,95275.87
2018-05-21T13:47:58.983Z,95281.59
2018-05-21T13:50:24.958Z,95274.73
2018-05-21T13:52:51.010Z,95283.02
2018-05-21T13:55:16.993Z,95282.44
2018-05-21T13:57:42.983Z,95279.31
2018-05-21T14:00:08.993Z,95279.11
2018-05-21T14:02:34.966Z,95273.22
2018-05-21T14:05:00.977Z,95282.11
2018-05-21T14:07:26.978Z,95273.02
2018-05-21T14:09:52.963Z,95265.55
2018-05-21T14:12:18.953Z,95265.14
2018-05-21T14:14:44.986Z,95267.70
2018-05-21T14:17:11.003Z,95267.09
2018-05-21T14:19:37.005Z,95264.77
2018-05-21T14:22:02.967Z,95265.00
2018-05-21T14:24:28.969Z,95269.15
2018-05-21T14:26:54.952Z,95276.83
2018-05-21T14:29:20.950Z,95267.20
2018-05-21T14:31:46.928Z,95272.56
2018-05-21T14:34:12.911Z,95272.72
2018-05-21T14:36:38.934Z,95268.81
2018-05-21T14:39:04.899Z,95271.58
2018-05-21T14:41:30.886Z,95276.16
2018-05-21T14:43:56.871Z,95270.23
2018-05-21T14:46:22.973Z,95262.73
2018-05-21T14:48:48.955Z,95267.27
2018-05-21T14:51:14.943Z,95270.27
2018-05-21T14:53:40.938Z,95269.70
2018-05-21T14:56:06.913Z,95270.07
2018-05-21T14:58:32.902Z,95270.48
2018-05-21T15:00:58.885Z,95269.09
2018-05-21T15:03:24.920Z,95269.91
2018-05-21T15:05:51.001Z,95268.73
2018-05-21T15:08:17.003Z,95260.23
2018-05-21T15:10:42.974Z,95258.05
2018-05-21T15:13:08.993Z,95260.23
2018-05-21T15:15:35.006Z,95259.43
2018-05-21T15:18:00.980Z,95254.34
2018-05-21T15:20:26.954Z,95249.19
2018-05-21T15:22:52.952Z,95249.39
2018-05-21T15:25:18.931Z,95252.77
2018-05-21T15:27:44.922Z,95249.19
2018-05-21T15:30:10.919Z,95249.19
2018-05-21T15:32:36.927Z,95247.41
2018-05-21T15:35:02.914Z,95245.86
2018-05-21T15:37:28.892Z,95242.89
2018-05-21T15:39:54.879Z,95244.27
2018-05-21T15:42:20.856Z,95250.44
2018-05-21T15:44:46.839Z,95245.28
2018-05-21T15:47:12.817Z,95245.08
2018-05-21T15:49:38.795Z,95243.91
2018-05-21T15:52:04.784Z,95243.33
2018-05-21T15:54:30.775Z,95242.36
2018-05-21T15:56:56.881Z,95246.91
2018-05-21T15:59:22.849Z,95246.50
2018-05-21T16:01:48.827Z,95245.33
2018-05-21T16:04:14.805Z,95243.16
2018-05-21T16:06:40.788Z,95245.12
2018-05-21T16:09:06.830Z,95246.33
2018-05-21T16:11:32.791Z,95246.09
2018-05-21T16:13:58.773Z,95247.31
2018-05-21T16:16:24.763Z,95243.53
2018-05-21T16:18:50.759Z,95238.21
2018-05-21T16:21:16.751Z,95235.45
2018-05-21T16:23:42.744Z,95236.83
2018-05-21T16:26:08.734Z,95239.19
2018-05-21T16:28:34.713Z,95235.45
2018-05-21T16:31:00.702Z,95235.42
2018-05-21T16:33:26.677Z,95232.48
2018-05-21T16:35:52.668Z,95240.57
2018-05-21T16:38:18.680Z,95236.43
2018-05-21T16:40:44.671Z,95243.33
2018-05-21T16:43:10.703Z,95240.17
2018-05-21T16:45:36.682Z,95238.42
2018-05-21T16:48:02.658Z,95237.03
2018-05-21T16:50:28.693Z,95238.79
2018-05-21T16:52:54.668Z,95240.37
2018-05-21T16:55:20.660Z,95238.58
2018-05-21T16:57:46.642Z,95234.20
2018-05-21T17:00:12.709Z,95233.63
2018-05-21T17:02:38.644Z,95235.21
2018-05-21T17:05:05.809Z,95243.50
2018-05-21T17:07:31.809Z,95239.36
2018-05-21T17:09:57.800Z,95239.77
2018-05-21T17:12:23.837Z,95249.84
2018-05-21T17:14:49.772Z,95247.31
2018-05-21T17:17:15.759Z,95259.77
2018-05-21T17:19:41.793Z,95257.75
2018-05-21T17:22:07.742Z,95257.98
2018-05-21T17:24:33.732Z,95257.41
2018-05-21T17:26:59.730Z,95255.02
2018-05-21T17:29:25.739Z,95251.25
2018-05-21T17:31:51.696Z,95256.20
2018-05-21T17:34:17.679Z,95262.16
2018-05-21T17:36:43.671Z,95255.46
2018-05-21T17:39:09.640Z,95262.37
2018-05-21T17:41:35.630Z,95259.64
2018-05-21T17:44:01.623Z,95255.30
2018-05-21T17:46:27.606Z,95263.78
2018-05-21T17:48:53.611Z,95266.34
2018-05-21T17:51:19.598Z,95261.39
2018-05-21T17:53:45.579Z,95267.32
2018-05-21T17:56:11.566Z,95265.16
2018-05-21T17:58:37.552Z,95264.22
2018-05-21T18:01:03.525Z,95263.41
2018-05-21T18:03:29.553Z,95274.30
2018-05-21T18:05:55.528Z,95264.45
2018-05-21T18:08:21.518Z,95271.36
2018-05-21T18:10:47.490Z,95277.13
2018-05-21T18:13:13.489Z,95277.90
2018-05-21T18:15:39.450Z,95278.64
2018-05-21T18:18:05.437Z,95283.13
2018-05-21T18:20:31.421Z,95290.22
2018-05-21T18:22:57.423Z,95286.45
2018-05-21T18:25:23.391Z,95284.22
2018-05-21T18:27:49.379Z,95283.02
2018-05-21T18:30:15.399Z,95284.19
2018-05-21T18:32:41.364Z,95284.19
2018-05-21T18:35:07.356Z,95296.17
2018-05-21T18:37:33.346Z,95293.25
2018-05-21T18:39:59.324Z,95296.21
2018-05-21T18:42:25.395Z,95296.05
2018-05-21T18:44:51.312Z,95300.56
2018-05-21T18:47:17.295Z,95295.64
2018-05-21T18:49:43.302Z,95296.82
2018-05-21T18:52:09.284Z,95296.08
2018-05-21T18:54:35.275Z,95294.50
2018-05-21T18:57:01.285Z,95288.97
2018-05-21T18:59:27.290Z,95288.17
2018-05-21T19:01:53.283Z,95289.78
2018-05-21T19:04:19.295Z,95294.73
2018-05-21T19:06:45.557Z,95297.66
2018-05-21T19:09:13.097Z,95291.33
2018-05-21T19:11:39.119Z,95293.32
2018-05-21T19:14:05.155Z,95288.17
2018-05-21T19:16:31.210Z,95285.20
2018-05-21T19:18:57.244Z,95280.28
2018-05-21T19:21:23.211Z,95277.52
2018-05-21T19:23:49.238Z,95279.84
2018-05-21T19:26:15.275Z,95283.05
2018-05-21T19:28:41.304Z,95286.75
2018-05-21T19:31:07.301Z,95282.03
2018-05-21T19:33:33.353Z,95278.87
2018-05-21T19:35:59.426Z,95280.86
2018-05-21T19:38:25.448Z,95279.27
2018-05-21T19:40:51.474Z,95281.63
2018-05-21T19:43:17.480Z,95278.47
2018-05-21T19:45:43.492Z,95283.98
2018-05-21T19:48:09.468Z,95282.23
2018-05-21T19:50:35.457Z,95282.03
2018-05-21T19:53:01.437Z,95278.09
2018-05-21T19:55:27.444Z,95267.21
2018-05-21T19:57:53.429Z,95268.19
2018-05-21T20:00:19.426Z,95266.23
2018-05-21T20:02:45.400Z,95272.33
2018-05-21T20:05:11.387Z,95271.76
2018-05-21T20:07:37.362Z,95274.92
2018-05-21T20:10:03.351Z,95274.28
2018-05-21T20:12:29.330Z,95281.83
2018-05-21T20:14:55.317Z,95280.05
2018-05-21T20:17:21.296Z,95284.19
2018-05-21T20:19:47.295Z,95281.83
2018-05-21T20:22:13.300Z,95280.62
2018-05-21T20:24:39.281Z,95284.16
2018-05-21T20:27:05.272Z,95278.05
2018-05-21T20:29:31.251Z,95273.91
2018-05-21T20:31:57.228Z,95277.66
2018-05-21T20:34:23.253Z,95285.91
2018-05-21T20:36:49.238Z,95283.87
2018-05-21T20:39:15.216Z,95288.02
2018-05-21T20:41:41.199Z,95291.80
2018-05-21T20:44:07.187Z,95293.91
2018-05-21T20:46:33.171Z,95295.49
2018-05-21T20:48:59.156Z,95299.63
2018-05-21T20:51:25.147Z,95302.56
2018-05-21T20:53:51.122Z,95299.40
2018-05-21T20:56:17.119Z,95294.45
2018-05-21T20:58:43.097Z,95301.55
2018-05-21T21:01:09.131Z,95301.14
2018-05-21T21:03:35.078Z,95303.10
2018-05-21T21:06:01.062Z,95301.92
2018-05-21T21:08:27.040Z,95308.02
2018-05-21T21:10:53.026Z,95311.95
2018-05-21T21:13:19.011Z,95312.52
2018-05-21T21:15:45.047Z,95318.21
2018-05-21T21:18:11.032Z,95317.81
2018-05-21T21:20:37.021Z,95309.16
2018-05-21T21:23:03.000Z,95316.62
2018-05-21T21:25:28.985Z,95316.22
2018-05-21T21:27:54.968Z,95318.17
2018-05-21T21:30:20.955Z,95316.80
2018-05-21T21:32:47.013Z,95316.39
2018-05-21T21:35:12.923Z,95320.73
2018-05-21T21:37:38.905Z,95321.30
2018-05-21T21:40:04.894Z,95319.52
2018-05-21T21:42:30.885Z,95321.87
2018-05-21T21:44:56.869Z,95328.00
2018-05-21T21:47:22.843Z,95330.77
2018-05-21T21:49:48.827Z,95325.23
2018-05-21T21:52:14.807Z,95326.38
2018-05-21T21:54:40.802Z,95328.73
2018-05-21T21:57:06.796Z,95333.89
2018-05-21T21:59:32.782Z,95336.25
2018-05-21T22:01:58.760Z,95332.10
2018-05-21T22:04:24.740Z,95330.48
2018-05-21T22:06:50.720Z,95331.87
2018-05-21T22:09:16.707Z,95331.09
2018-05-21T22:11:42.706Z,95332.47
2018-05-21T22:14:08.685Z,95327.52
2018-05-21T22:16:34.677Z,95321.59
2018-05-21T22:19:00.653Z,95317.05
2018-05-21T22:21:26.640Z,95315.66
2018-05-21T22:23:52.667Z,95313.88
2018-05-21T22:26:18.647Z,95316.44
2018-05-21T22:28:44.632Z,95311.31
2018-05-21T22:31:10.687Z,95309.53
2018-05-21T22:33:36.662Z,95313.84
2018-05-21T22:36:02.642Z,95310.10
2018-05-21T22:38:28.718Z,95305.16
2018-05-21T22:40:54.658Z,95311.08
2018-05-21T22:43:20.646Z,95310.27
2018-05-21T22:45:46.643Z,95309.50
2018-05-21T22:48:12.626Z,95312.26
2018-05-21T22:50:38.624Z,95314.61
2018-05-21T22:53:04.604Z,95317.78
2018-05-21T22:55:30.585Z,95319.33
2018-05-21T22:57:56.572Z,95326.80
2018-05-21T23:00:22.552Z,95323.66
2018-05-21T23:02:48.539Z,95325.05
2018-05-21T23:05:14.567Z,95326.42
2018-05-21T23:07:40.556Z,95324.23
2018-05-21T23:10:06.573Z,95323.83
2018-05-21T23:12:32.560Z,95335.69
2018-05-21T23:14:58.535Z,95338.20
2018-05-21T23:17:24.537Z,95339.59
2018-05-21T23:19:50.525Z,95337.23
2018-05-21T23:22:16.503Z,95340.56
2018-05-21T23:24:42.491Z,95334.67
2018-05-21T23:27:08.474Z,95336.05
2018-05-21T23:29:34.452Z,95334.43
2018-05-21T23:32:00.437Z,95329.31
2018-05-21T23:34:26.423Z,95331.67
2018-05-21T23:36:52.406Z,95330.86
2018-05-21T23:39:18.388Z,95333.25
2018-05-21T23:41:44.371Z,95337.77
2018-05-21T23:44:10.353Z,95334.63
2018-05-21T23:46:36.331Z,95337.95
2018-05-21T23:49:02.316Z,95335.60
2018-05-21T23:51:28.308Z,95327.89
2018-05-21T23:53:54.298Z,95340.72
2018-05-21T23:56:20.270Z,95336.75
2018-05-21T23:58:46.255Z,95329.06
